Time;durP1;ratioP1;P1;durP2;ratioP2;P2;SDS_P1;SDS_P2;PMS_P1;PMS_P2;Temp;Humidity;BMP_temperature;BMP_pressure;BME280_temperature;BME280_humidity;BME280_pressure;Samples;Min_cycle;Max_cycle;Signal;HPM_P1;HPM_P2
2022/11/30 00:01:56;;;;;;;48.30;25.60;;;;;;;-145.18;100.00;46676.03;5034130;28;20473;-78
2022/11/30 00:04:21;;;;;;;49.03;23.93;;;;;;;-145.18;100.00;46674.06;5051889;28;20501;-78
2022/11/30 00:06:46;;;;;;;44.83;24.10;;;;;;;-145.18;100.00;46679.94;5051616;28;20119;-78
2022/11/30 00:09:12;;;;;;;44.30;23.63;;;;;;;-145.18;100.00;46676.03;5052183;28;20029;-78
2022/11/30 00:11:37;;;;;;;41.73;23.10;;;;;;;-145.18;100.00;46685.78;5051761;28;20631;-77
2022/11/30 00:14:03;;;;;;;49.27;23.53;;;;;;;-145.18;100.00;46676.03;5051934;28;20048;-77
2022/11/30 00:16:28;;;;;;;42.87;23.00;;;;;;;-145.18;100.00;46677.97;5051352;28;20439;-78
2022/11/30 00:18:53;;;;;;;46.43;23.70;;;;;;;-145.18;100.00;46674.06;5051910;28;20531;-77
2022/11/30 00:21:19;;;;;;;44.00;23.37;;;;;;;-145.18;100.00;46674.06;5033652;28;20039;-77
2022/11/30 00:23:46;;;;;;;52.53;25.07;;;;;;;-145.18;100.00;46672.13;5051444;28;20029;-77
2022/11/30 00:26:18;;;;;;;47.07;24.83;;;;;;;-145.18;100.00;46676.03;5051681;28;20244;-77
2022/11/30 00:28:47;;;;;;;50.10;25.70;;;;;;;-145.18;100.00;46677.97;5051244;28;20305;-77
2022/11/30 00:31:14;;;;;;;43.00;22.93;;;;;;;-145.18;100.00;46681.88;5051300;28;20281;-77
2022/11/30 00:33:40;;;;;;;41.20;23.83;;;;;;;-145.18;100.00;46679.94;5050574;28;20270;-77
2022/11/30 00:36:09;;;;;;;44.90;23.97;;;;;;;-145.18;100.00;46676.03;5051312;28;20265;-77
2022/11/30 00:38:34;;;;;;;40.57;22.77;;;;;;;-145.18;100.00;46676.03;5051166;28;20076;-77
2022/11/30 00:41:01;;;;;;;42.03;22.40;;;;;;;-145.18;100.00;46676.03;5051255;28;20604;-77
2022/11/30 00:43:26;;;;;;;41.40;22.47;;;;;;;-145.18;100.00;46679.94;5033151;28;20045;-77
2022/11/30 00:45:52;;;;;;;37.83;21.57;;;;;;;-145.18;100.00;46677.97;5051082;28;20323;-77
2022/11/30 00:48:18;;;;;;;39.57;22.13;;;;;;;-145.18;100.00;46676.03;5033130;28;20037;-76
2022/11/30 00:50:43;;;;;;;39.03;21.47;;;;;;;-145.18;100.00;46672.13;5050787;28;20095;-76
2022/11/30 00:53:08;;;;;;;37.77;22.07;;;;;;;-145.18;100.00;46679.94;5051242;28;20068;-76
2022/11/30 00:55:34;;;;;;;45.20;22.43;;;;;;;-145.18;100.00;46679.94;5051065;28;20684;-76
2022/11/30 00:58:00;;;;;;;35.50;20.87;;;;;;;-145.18;100.00;46676.03;5050992;28;20060;-77
2022/11/30 01:00:26;;;;;;;36.57;19.80;;;;;;;-145.18;100.00;46679.94;5051336;28;20037;-78
2022/11/30 01:02:56;;;;;;;38.93;20.50;;;;;;;-145.18;100.00;46676.03;5050837;28;20036;-77
2022/11/30 01:05:21;;;;;;;34.67;20.07;;;;;;;-145.18;100.00;46689.69;5050903;28;20302;-77
2022/11/30 01:07:46;;;;;;;36.33;20.83;;;;;;;-145.18;100.00;46676.03;5050382;28;20325;-77
2022/11/30 01:10:12;;;;;;;36.90;20.47;;;;;;;-145.18;100.00;46681.88;5050833;28;20041;-77
2022/11/30 01:12:37;;;;;;;31.00;19.00;;;;;;;-145.18;100.00;46679.94;5050553;28;20045;-77
2022/11/30 01:15:03;;;;;;;33.53;19.90;;;;;;;-145.18;100.00;46676.03;5033606;28;20041;-76
2022/11/30 01:17:28;;;;;;;32.70;19.27;;;;;;;-145.18;100.00;46681.88;5050812;28;20079;-77
2022/11/30 01:19:54;;;;;;;34.43;19.43;;;;;;;-145.18;100.00;46676.03;5051521;28;20074;-77
2022/11/30 01:22:19;;;;;;;36.70;18.57;;;;;;;-145.18;100.00;46679.94;5033212;28;20033;-76
2022/11/30 01:24:44;;;;;;;30.83;19.93;;;;;;;-145.18;100.00;46683.84;5050687;28;20056;-77
2022/11/30 01:27:10;;;;;;;33.43;18.57;;;;;;;-145.18;100.00;46676.03;5032537;28;20045;-77
2022/11/30 01:29:35;;;;;;;30.27;18.53;;;;;;;-145.18;100.00;46683.84;5050359;28;20033;-78
2022/11/30 01:32:01;;;;;;;31.47;18.77;;;;;;;-145.18;100.00;46687.75;5032643;28;20029;-77
2022/11/30 01:34:26;;;;;;;28.27;17.50;;;;;;;-145.18;100.00;46683.84;5050423;28;20033;-77
2022/11/30 01:36:51;;;;;;;27.93;17.80;;;;;;;-145.18;100.00;46677.97;5050337;28;20068;-78
2022/11/30 01:39:17;;;;;;;34.47;18.10;;;;;;;-145.18;100.00;46677.97;5050557;28;20033;-77
2022/11/30 01:41:42;;;;;;;28.27;18.63;;;;;;;-145.18;100.00;46685.78;5050099;28;20029;-77
2022/11/30 01:44:13;;;;;;;29.97;17.70;;;;;;;-145.18;100.00;46683.84;5050566;28;20480;-77
2022/11/30 01:46:53;;;;;;;29.50;16.87;;;;;;;-145.18;100.00;46687.75;5049751;28;20124;-77
2022/11/30 01:49:26;;;;;;;32.53;18.07;;;;;;;-145.18;100.00;46679.94;5050290;28;20270;-77
2022/11/30 01:51:59;;;;;;;33.57;18.50;;;;;;;-145.18;100.00;46687.75;5050304;28;20303;-77
2022/11/30 01:54:30;;;;;;;26.67;16.37;;;;;;;-145.18;100.00;46685.78;5049897;28;20266;-77
2022/11/30 01:57:03;;;;;;;26.67;16.40;;;;;;;-145.18;100.00;46685.78;5050108;28;20262;-77
2022/11/30 01:59:28;;;;;;;22.87;15.37;;;;;;;-145.18;100.00;46677.97;5050352;28;20254;-78
2022/11/30 02:01:54;;;;;;;25.40;16.20;;;;;;;-145.18;100.00;46679.94;5050180;28;20269;-77
2022/11/30 02:04:30;;;;;;;29.50;17.10;;;;;;;-145.18;100.00;46681.88;5049958;28;20067;-78
2022/11/30 02:06:57;;;;;;;29.03;17.57;;;;;;;-145.18;100.00;46681.88;5050034;28;20025;-77
2022/11/30 02:09:26;;;;;;;26.73;17.70;;;;;;;-145.18;100.00;46683.84;5050384;28;20319;-77
2022/11/30 02:11:52;;;;;;;30.43;16.83;;;;;;;-145.18;100.00;46683.84;5050150;28;20273;-77
2022/11/30 02:14:26;;;;;;;27.53;16.40;;;;;;;-145.18;100.00;46681.88;5050135;28;20258;-77
2022/11/30 02:17:41;;;;;;;29.73;16.57;;;;;;;-145.18;100.00;46679.94;5049976;28;20266;-77
2022/11/30 02:20:18;;;;;;;31.27;17.07;;;;;;;-145.18;100.00;46683.84;5015084;28;20262;-78
2022/11/30 02:23:14;;;;;;;27.03;16.87;;;;;;;-145.18;100.00;46687.75;5049711;28;20770;-77
2022/11/30 02:26:06;;;;;;;26.20;15.80;;;;;;;-145.18;100.00;46677.97;5031755;28;20270;-77
2022/11/30 02:28:53;;;;;;;27.93;15.93;;;;;;;-145.18;100.00;46687.75;5049830;28;20052;-77
2022/11/30 02:31:26;;;;;;;28.13;17.20;;;;;;;-145.18;100.00;46687.75;5053788;28;20335;-77
2022/11/30 02:33:54;;;;;;;24.90;16.13;;;;;;;-145.18;100.00;46685.78;5053997;28;20691;-76
2022/11/30 02:36:21;;;;;;;24.90;15.97;;;;;;;-145.18;100.00;46679.94;5036250;28;20331;-78
2022/11/30 02:38:47;;;;;;;24.87;15.67;;;;;;;-145.18;100.00;46681.88;5053405;28;20277;-78
2022/11/30 02:41:12;;;;;;;24.27;15.73;;;;;;;-145.18;100.00;46687.75;5053800;28;20281;-77
2022/11/30 02:43:38;;;;;;;25.10;15.53;;;;;;;-145.18;100.00;46683.84;5053392;28;20270;-77
2022/11/30 02:46:12;;;;;;;28.83;17.00;;;;;;;-145.18;100.00;46687.75;5053706;28;20090;-78
2022/11/30 02:48:47;;;;;;;25.03;16.23;;;;;;;-145.18;100.00;46687.75;5053119;28;20033;-77
2022/11/30 02:51:18;;;;;;;23.67;14.68;;;;;;;-145.18;100.00;46687.75;5053608;28;20282;-77
2022/11/30 02:53:44;;;;;;;18.67;13.23;;;;;;;-145.18;100.00;46695.56;5053077;28;20419;-77
2022/11/30 02:56:10;;;;;;;18.50;13.07;;;;;;;-145.18;100.00;46689.69;5053436;28;20276;-77
2022/11/30 02:58:35;;;;;;;20.10;13.27;;;;;;;-145.18;100.00;46689.69;5053262;28;20349;-77
2022/11/30 03:03:36;;;;;;;48.63;14.25;;;;;;;-145.18;100.00;46687.75;5003004;22;20441;-77
2022/11/30 03:06:01;;;;;;;28.40;12.67;;;;;;;-145.18;100.00;46683.84;5004881;28;20033;-77
2022/11/30 03:08:26;;;;;;;28.87;14.47;;;;;;;-145.18;100.00;46687.75;5013171;28;20049;-77
2022/11/30 03:10:52;;;;;;;17.73;12.67;;;;;;;-145.18;100.00;46685.78;4995725;28;20034;-77
2022/11/30 03:13:17;;;;;;;20.23;13.27;;;;;;;-145.18;100.00;46689.69;5013211;28;20038;-77
2022/11/30 03:15:42;;;;;;;18.70;12.73;;;;;;;-145.18;100.00;46679.94;5013177;28;20109;-77
2022/11/30 03:18:08;;;;;;;18.60;12.23;;;;;;;-145.18;100.00;46691.66;5013403;28;20387;-77
2022/11/30 03:20:33;;;;;;;20.67;11.03;;;;;;;-145.18;100.00;46683.84;5013343;28;20058;-77
2022/11/30 03:23:00;;;;;;;32.13;10.70;;;;;;;-145.18;100.00;46683.84;5013129;28;20034;-77
2022/11/30 03:25:26;;;;;;;17.90;11.20;;;;;;;-145.18;100.00;46685.78;5012778;28;20033;-77
2022/11/30 03:27:51;;;;;;;18.57;11.43;;;;;;;-145.18;100.00;46695.56;5012789;28;20296;-77
2022/11/30 03:30:17;;;;;;;15.23;11.40;;;;;;;-145.18;100.00;46683.84;4995596;28;20037;-77
2022/11/30 03:32:42;;;;;;;21.17;13.93;;;;;;;-145.18;100.00;46685.78;5012889;28;20018;-77
2022/11/30 03:35:07;;;;;;;20.77;12.83;;;;;;;-145.18;100.00;46689.69;5013119;28;20044;-77
2022/11/30 03:37:33;;;;;;;19.87;12.33;;;;;;;-145.18;100.00;46687.75;5012854;28;20072;-77
2022/11/30 03:39:58;;;;;;;17.27;12.37;;;;;;;-145.18;100.00;46683.84;5012439;28;20038;-77
2022/11/30 03:42:24;;;;;;;35.23;11.33;;;;;;;-145.18;100.00;46685.78;5012895;28;20029;-77
2022/11/30 03:44:49;;;;;;;48.20;11.60;;;;;;;-145.18;100.00;46689.69;4994948;28;20028;-77
2022/11/30 03:47:14;;;;;;;69.20;12.23;;;;;;;-145.18;100.00;46693.59;4995137;28;20113;-77
2022/11/30 03:49:40;;;;;;;59.77;11.93;;;;;;;-145.18;100.00;46689.69;5012646;28;20620;-77
2022/11/30 03:52:05;;;;;;;31.73;12.43;;;;;;;-145.18;100.00;46695.56;5012689;28;20121;-77
2022/11/30 03:54:30;;;;;;;20.27;12.80;;;;;;;-145.18;100.00;46705.31;5012778;28;20061;-77
2022/11/30 03:56:56;;;;;;;27.40;13.80;;;;;;;-145.18;100.00;46693.59;4994823;28;20060;-77
2022/11/30 03:59:21;;;;;;;22.40;12.70;;;;;;;-145.18;100.00;46687.75;5012793;28;20038;-77
2022/11/30 04:01:47;;;;;;;21.37;13.03;;;;;;;-145.18;100.00;46707.28;5012027;28;20104;-77
2022/11/30 04:04:12;;;;;;;21.23;13.43;;;;;;;-145.18;100.00;46703.38;5012434;28;20140;-77
2022/11/30 04:06:39;;;;;;;20.33;13.80;;;;;;;-145.18;100.00;46693.59;5012828;28;20042;-77
2022/11/30 04:09:04;;;;;;;19.23;13.00;;;;;;;-145.18;100.00;46705.31;5012248;28;20113;-77
2022/11/30 04:11:30;;;;;;;21.73;14.03;;;;;;;-145.18;100.00;46693.59;5012620;28;20358;-76
2022/11/30 04:13:55;;;;;;;19.63;13.00;;;;;;;-145.18;100.00;46705.31;4994140;28;20125;-77
2022/11/30 04:16:20;;;;;;;19.57;12.27;;;;;;;-145.18;100.00;46693.59;5012439;28;20073;-76
2022/11/30 04:18:46;;;;;;;20.00;13.00;;;;;;;-145.18;100.00;46697.50;4994316;28;20069;-77
2022/11/30 04:21:11;;;;;;;16.83;11.57;;;;;;;-145.18;100.00;46693.59;4994508;28;20033;-77
2022/11/30 04:23:38;;;;;;;26.97;13.13;;;;;;;-145.18;100.00;46711.19;5012097;28;20478;-77
2022/11/30 04:26:06;;;;;;;34.70;12.37;;;;;;;-145.18;100.00;46697.50;5012312;28;20034;-77
2022/11/30 04:28:32;;;;;;;22.23;11.40;;;;;;;-145.18;100.00;46697.50;5011809;28;20346;-76
2022/11/30 04:30:59;;;;;;;27.47;11.93;;;;;;;-145.18;100.00;46695.56;5011740;28;20276;-77
2022/11/30 04:33:26;;;;;;;40.53;12.03;;;;;;;-145.18;100.00;46697.50;5011923;28;20291;-77
2022/11/30 04:35:55;;;;;;;19.47;12.80;;;;;;;-145.18;100.00;46705.31;5011732;28;20271;-77
2022/11/30 04:38:21;;;;;;;14.40;10.47;;;;;;;-145.18;100.00;46691.66;5011513;28;20294;-77
2022/11/30 04:40:46;;;;;;;16.67;10.97;;;;;;;-145.18;100.00;46691.66;5008497;28;20404;-77
2022/11/30 04:43:12;;;;;;;15.13;11.40;;;;;;;-145.18;100.00;46707.28;5012383;28;20339;-77
2022/11/30 04:48:11;;;;;;;19.07;11.93;;;;;;;-145.18;100.00;46709.22;4950205;28;20051;-77
2022/11/30 04:50:38;;;;;;;15.37;11.17;;;;;;;-145.18;100.00;46689.69;4945568;28;20848;-77
2022/11/30 04:53:03;;;;;;;16.30;11.47;;;;;;;-145.18;100.00;46699.47;4970690;28;20281;-77
2022/11/30 04:55:29;;;;;;;20.27;12.20;;;;;;;-145.18;100.00;46697.50;4978889;28;20803;-77
2022/11/30 04:57:54;;;;;;;16.83;11.40;;;;;;;-145.18;100.00;46683.84;4954612;28;20770;-76
2022/11/30 05:00:20;;;;;;;14.97;10.50;;;;;;;-145.18;100.00;46699.47;4971694;28;20039;-76
2022/11/30 05:02:45;;;;;;;17.27;11.30;;;;;;;-145.18;100.00;46685.78;4959805;28;20031;-77
2022/11/30 05:05:11;;;;;;;18.70;12.63;;;;;;;-145.18;100.00;46693.59;4989161;22;20722;-78
2022/11/30 05:07:37;;;;;;;18.60;12.30;;;;;;;-145.18;100.00;46707.28;4983266;28;20062;-78
2022/11/30 05:10:04;;;;;;;18.63;12.80;;;;;;;-145.18;100.00;46683.84;4988549;28;20039;-77
2022/11/30 05:12:29;;;;;;;16.80;11.50;;;;;;;-145.18;100.00;46695.56;4986937;28;20042;-77
2022/11/30 05:14:54;;;;;;;21.77;14.60;;;;;;;-145.18;100.00;46699.47;4989097;28;20280;-77
2022/11/30 05:17:20;;;;;;;25.20;14.67;;;;;;;-145.18;100.00;46693.59;4990882;28;20046;-77
2022/11/30 05:19:45;;;;;;;24.63;14.73;;;;;;;-145.18;100.00;46697.50;4991569;28;20034;-78
2022/11/30 05:22:10;;;;;;;27.50;15.70;;;;;;;-145.18;100.00;46697.50;4991339;28;20475;-78
2022/11/30 05:27:13;;;;;;;23.92;15.00;;;;;;;-145.18;100.00;46691.66;5064606;27;1256875;-77
2022/11/30 05:29:38;;;;;;;22.67;14.93;;;;;;;-145.18;100.00;46691.66;5071654;28;20040;-77
2022/11/30 05:32:03;;;;;;;23.00;14.87;;;;;;;-145.18;100.00;46697.50;5087630;28;20044;-77
2022/11/30 05:34:29;;;;;;;24.10;15.30;;;;;;;-145.18;100.00;46695.56;5069540;28;20048;-77
2022/11/30 05:36:54;;;;;;;32.70;16.17;;;;;;;-145.18;100.00;46707.28;5100883;22;20057;-78
2022/11/30 05:39:19;;;;;;;29.87;15.80;;;;;;;-145.18;100.00;46689.69;4997184;28;20121;-78
2022/11/30 05:41:45;;;;;;;29.50;16.50;;;;;;;-145.18;100.00;46693.59;5024223;23;20124;-78
2022/11/30 05:44:10;;;;;;;27.63;16.27;;;;;;;-145.18;100.00;46701.41;5040632;28;20084;-78
2022/11/30 05:46:36;;;;;;;27.87;16.33;;;;;;;-145.18;100.00;46693.59;5045664;28;20084;-77
2022/11/30 05:49:02;;;;;;;30.67;17.00;;;;;;;-145.18;100.00;46687.75;5045941;28;20542;-78
2022/11/30 05:51:27;;;;;;;28.93;17.07;;;;;;;-145.18;100.00;46695.56;5046980;28;20033;-77
2022/11/30 05:53:53;;;;;;;31.57;17.13;;;;;;;-145.18;100.00;46699.47;5046769;28;20386;-77
2022/11/30 05:56:19;;;;;;;31.43;16.27;;;;;;;-145.18;100.00;46697.50;5045593;28;20067;-78
2022/11/30 05:58:45;;;;;;;34.87;16.00;;;;;;;-145.18;100.00;46707.28;5047136;28;20083;-78
2022/11/30 06:01:23;;;;;;;32.93;18.43;;;;;;;-145.18;100.00;46695.56;5046999;28;20282;-78
2022/11/30 06:03:48;;;;;;;29.57;16.83;;;;;;;-145.18;100.00;46695.56;5047090;28;20076;-78
2022/11/30 06:06:14;;;;;;;30.07;18.03;;;;;;;-145.18;100.00;46691.66;5046635;28;20694;-78
2022/11/30 06:08:39;;;;;;;34.60;16.77;;;;;;;-145.18;100.00;46691.66;5046722;28;20033;-78
2022/11/30 06:11:05;;;;;;;33.17;17.87;;;;;;;-145.18;100.00;46695.56;5047080;28;20025;-78
2022/11/30 06:13:31;;;;;;;30.73;17.40;;;;;;;-145.18;100.00;46703.38;5046028;28;20049;-78
2022/11/30 06:16:04;;;;;;;31.27;17.20;;;;;;;-145.18;100.00;46693.59;5044871;28;20535;-78
2022/11/30 06:18:29;;;;;;;28.50;16.60;;;;;;;-145.18;100.00;46691.66;5043724;28;20262;-78
2022/11/30 06:20:59;;;;;;;29.03;16.40;;;;;;;-145.18;100.00;46697.50;5046161;28;20259;-78
2022/11/30 06:23:24;;;;;;;30.93;18.17;;;;;;;-145.18;100.00;46705.31;5038086;28;20421;-78
2022/11/30 06:25:50;;;;;;;31.73;19.17;;;;;;;-145.18;100.00;46691.66;5043982;28;20317;-78
2022/11/30 06:28:15;;;;;;;30.20;18.47;;;;;;;-145.18;100.00;46699.47;5043150;28;20043;-77
2022/11/30 06:30:40;;;;;;;34.93;18.50;;;;;;;-145.18;100.00;46689.69;5045333;28;20549;-78
2022/11/30 06:33:06;;;;;;;32.80;17.97;;;;;;;-145.18;100.00;46689.69;5045187;28;20501;-78
2022/11/30 06:35:31;;;;;;;29.50;18.43;;;;;;;-145.18;100.00;46697.50;5045464;28;20757;-78
2022/11/30 06:37:59;;;;;;;38.53;18.63;;;;;;;-145.18;100.00;46691.66;5036310;28;20033;-78
2022/11/30 06:40:24;;;;;;;37.23;20.40;;;;;;;-145.18;100.00;46697.50;5033292;28;20405;-77
2022/11/30 06:42:50;;;;;;;36.13;19.93;;;;;;;-145.18;100.00;46703.38;5048088;28;20316;-78
2022/11/30 06:45:15;;;;;;;27.53;16.73;;;;;;;-145.18;100.00;46697.50;5052881;28;20470;-78
2022/11/30 06:47:41;;;;;;;27.13;17.03;;;;;;;-145.18;100.00;46697.50;5052980;28;20044;-78
2022/11/30 06:50:07;;;;;;;33.80;19.07;;;;;;;-145.18;100.00;46703.38;5052962;28;20036;-78
2022/11/30 06:52:32;;;;;;;33.17;18.30;;;;;;;-145.18;100.00;46689.69;5052008;28;20044;-78
2022/11/30 06:54:58;;;;;;;28.70;17.53;;;;;;;-145.18;100.00;46699.47;5052613;28;20662;-78
2022/11/30 06:57:27;;;;;;;32.33;17.17;;;;;;;-145.18;100.00;46701.41;5052094;28;20534;-78
2022/11/30 06:59:53;;;;;;;30.27;18.13;;;;;;;-145.18;100.00;46697.50;5052853;28;20033;-78
2022/11/30 07:02:18;;;;;;;32.97;19.63;;;;;;;-145.18;100.00;46701.41;5049645;28;20282;-78
2022/11/30 07:04:43;;;;;;;31.67;19.07;;;;;;;-145.18;100.00;46695.56;5050436;28;20033;-78
2022/11/30 07:07:09;;;;;;;31.17;18.53;;;;;;;-145.18;100.00;46701.41;5048054;28;20041;-78
2022/11/30 07:09:34;;;;;;;29.10;17.70;;;;;;;-145.18;100.00;46695.56;5032962;28;20469;-78
2022/11/30 07:12:01;;;;;;;22.03;14.33;;;;;;;-145.18;100.00;46697.50;5051153;28;20021;-78
2022/11/30 07:14:27;;;;;;;28.57;16.70;;;;;;;-145.18;100.00;46693.59;5050790;28;20025;-78
2022/11/30 07:16:52;;;;;;;27.60;16.87;;;;;;;-145.18;100.00;46689.69;5052189;28;20280;-78
2022/11/30 07:19:17;;;;;;;31.60;17.13;;;;;;;-145.18;100.00;46705.31;5052036;28;20029;-78
2022/11/30 07:21:43;;;;;;;26.63;16.67;;;;;;;-145.18;100.00;46685.78;5052192;28;20037;-78
2022/11/30 07:26:54;;;;;;;31.55;16.88;;;;;;;-145.18;100.00;46687.75;5052173;28;20043;-78
2022/11/30 07:29:20;;;;;;;26.50;15.80;;;;;;;-145.18;100.00;46697.50;5051381;28;20683;-78
2022/11/30 07:31:50;;;;;;;27.23;15.27;;;;;;;-145.18;100.00;46691.66;5052037;28;20044;-78
2022/11/30 07:34:16;;;;;;;22.27;14.83;;;;;;;-145.18;100.00;46687.75;5052044;28;20471;-79
2022/11/30 07:36:41;;;;;;;21.60;14.67;;;;;;;-145.18;100.00;46693.59;5051700;28;20274;-78
2022/11/30 07:39:06;;;;;;;19.27;13.50;;;;;;;-145.18;100.00;46697.50;5051624;28;20086;-78
2022/11/30 07:41:32;;;;;;;20.63;13.37;;;;;;;-145.18;100.00;46693.59;5051115;28;20420;-78
2022/11/30 07:43:58;;;;;;;19.80;14.17;;;;;;;-145.18;100.00;46697.50;5051424;28;20098;-78
2022/11/30 07:46:23;;;;;;;19.80;13.77;;;;;;;-145.18;100.00;46697.50;5051592;28;20029;-77
2022/11/30 07:48:49;;;;;;;21.70;14.37;;;;;;;-145.18;100.00;46691.66;5050673;28;20270;-77
2022/11/30 07:51:18;;;;;;;19.67;14.00;;;;;;;-145.18;100.00;46699.47;5051441;28;20029;-77
2022/11/30 07:53:44;;;;;;;20.70;15.10;;;;;;;-145.18;100.00;46705.31;5051471;28;20025;-77
2022/11/30 07:56:12;;;;;;;23.63;13.83;;;;;;;-145.18;100.00;46689.69;5033682;28;20343;-77
2022/11/30 07:58:38;;;;;;;20.10;13.93;;;;;;;-145.18;100.00;46705.31;5033313;28;20071;-77
2022/11/30 08:01:09;;;;;;;19.13;13.97;;;;;;;-145.18;100.00;46707.28;5033363;28;20270;-78
2022/11/30 08:03:35;;;;;;;18.70;14.23;;;;;;;-145.18;100.00;46697.50;5051205;28;20040;-78
2022/11/30 08:06:12;;;;;;;21.43;14.13;;;;;;;-145.18;100.00;46693.59;5033433;28;20294;-77
2022/11/30 08:08:43;;;;;;;21.10;15.00;;;;;;;-145.18;100.00;46693.59;5051079;28;20266;-78
2022/11/30 08:11:11;;;;;;;20.33;14.40;;;;;;;-145.18;100.00;46701.41;5051302;28;20266;-78
2022/11/30 08:13:37;;;;;;;17.90;12.93;;;;;;;-145.18;100.00;46691.66;5050927;28;20335;-78
2022/11/30 08:16:07;;;;;;;21.53;13.57;;;;;;;-145.18;100.00;46697.50;5051412;28;20274;-78
2022/11/30 08:18:33;;;;;;;19.43;14.10;;;;;;;-145.18;100.00;46705.31;5050841;28;20033;-78
2022/11/30 08:21:00;;;;;;;23.03;15.50;;;;;;;-145.18;100.00;46689.69;5051221;28;20682;-78
2022/11/30 08:23:30;;;;;;;24.13;16.17;;;;;;;-145.18;100.00;46699.47;5050872;28;20025;-78
2022/11/30 08:25:55;;;;;;;23.40;15.33;;;;;;;-145.18;100.00;46695.56;5050302;28;20649;-78
2022/11/30 08:28:20;;;;;;;20.17;13.50;;;;;;;-145.18;100.00;46703.38;5050813;28;20308;-78
2022/11/30 08:30:46;;;;;;;28.07;17.00;;;;;;;-145.18;100.00;46705.31;5051133;28;20028;-78
2022/11/30 08:33:12;;;;;;;30.13;19.60;;;;;;;-145.18;100.00;46699.47;5051035;28;20446;-78
2022/11/30 08:35:38;;;;;;;29.73;20.13;;;;;;;-145.18;100.00;46699.47;5033230;28;20036;-78
2022/11/30 08:38:03;;;;;;;34.43;20.33;;;;;;;-145.18;100.00;46707.28;5051207;28;20266;-78
2022/11/30 08:40:28;;;;;;;30.67;20.13;;;;;;;-145.18;100.00;46701.41;5051218;28;20062;-78
2022/11/30 08:42:54;;;;;;;32.77;20.90;;;;;;;-145.18;100.00;46703.38;5050798;28;20053;-78
2022/11/30 08:45:19;;;;;;;32.63;19.57;;;;;;;-145.18;100.00;46703.38;5050433;28;20044;-78
2022/11/30 08:47:44;;;;;;;36.00;19.40;;;;;;;-145.18;100.00;46703.38;5051332;28;20040;-78
2022/11/30 08:50:10;;;;;;;31.13;19.17;;;;;;;-145.18;100.00;46697.50;5051318;28;20409;-78
2022/11/30 08:52:35;;;;;;;35.67;19.83;;;;;;;-145.18;100.00;46701.41;5051033;28;20041;-78
2022/11/30 08:55:00;;;;;;;32.87;19.57;;;;;;;-145.18;100.00;46697.50;5051673;28;20112;-78
2022/11/30 08:57:26;;;;;;;31.77;20.23;;;;;;;-145.18;100.00;46699.47;5051185;28;20028;-78
2022/11/30 08:59:51;;;;;;;33.77;21.33;;;;;;;-145.18;100.00;46699.47;5033227;28;20037;-78
2022/11/30 09:02:18;;;;;;;35.47;20.50;;;;;;;-145.18;100.00;46697.50;5051536;28;20032;-78
2022/11/30 09:04:45;;;;;;;35.80;21.27;;;;;;;-145.18;100.00;46693.59;5051543;28;20035;-78
2022/11/30 09:07:12;;;;;;;35.80;21.87;;;;;;;-145.18;100.00;46693.59;5051386;28;20903;-78
2022/11/30 09:09:37;;;;;;;35.87;21.13;;;;;;;-145.18;100.00;46691.66;5051241;28;20361;-78
2022/11/30 09:12:02;;;;;;;40.63;22.93;;;;;;;-145.18;100.00;46689.69;5051441;28;20327;-79
2022/11/30 09:14:28;;;;;;;35.40;23.23;;;;;;;-145.18;100.00;46693.59;5051388;28;20053;-78
2022/11/30 09:16:54;;;;;;;35.63;23.47;;;;;;;-145.18;100.00;46695.56;5051751;28;20095;-78
2022/11/30 09:19:20;;;;;;;38.23;23.27;;;;;;;-145.18;100.00;46691.66;5051431;28;20036;-78
2022/11/30 09:21:45;;;;;;;37.30;22.57;;;;;;;-145.18;100.00;46687.75;5034234;28;20033;-78
2022/11/30 09:24:11;;;;;;;37.23;23.43;;;;;;;-145.18;100.00;46689.69;5051374;28;20670;-78
2022/11/30 09:26:36;;;;;;;40.30;23.77;;;;;;;-145.18;100.00;46693.59;5051487;28;20041;-78
2022/11/30 09:29:02;;;;;;;38.60;23.60;;;;;;;-145.18;100.00;46691.66;5051604;28;20029;-78
2022/11/30 09:31:27;;;;;;;38.87;24.80;;;;;;;-145.18;100.00;46691.66;5033651;28;20037;-79
2022/11/30 09:33:55;;;;;;;43.13;24.27;;;;;;;-145.18;100.00;46691.66;5051353;28;20037;-78
2022/11/30 09:36:22;;;;;;;38.93;24.17;;;;;;;-145.18;100.00;46693.59;5051397;28;20404;-78
2022/11/30 09:38:48;;;;;;;36.70;22.73;;;;;;;-145.18;100.00;46691.66;5051433;28;20278;-78
2022/11/30 09:41:37;;;;;;;38.53;22.97;;;;;;;-145.18;100.00;46693.59;5051068;28;20274;-78
2022/11/30 09:44:27;;;;;;;40.40;24.87;;;;;;;-145.18;100.00;46695.56;5049990;28;20493;-78
2022/11/30 09:47:03;;;;;;;38.27;24.17;;;;;;;-145.18;100.00;46685.78;5050337;28;20638;-78
2022/11/30 09:49:43;;;;;;;39.78;23.95;;;;;;;-145.18;100.00;46691.66;5048562;28;20262;-78
2022/11/30 09:52:43;;;;;;;41.47;25.53;;;;;;;-145.18;100.00;46683.84;5051169;28;20056;-78
2022/11/30 09:55:11;;;;;;;40.10;24.20;;;;;;;-145.18;100.00;46691.66;5039825;28;20630;-78
2022/11/30 09:57:53;;;;;;;41.50;23.80;;;;;;;-145.18;100.00;46683.84;5050540;28;20354;-78
2022/11/30 10:00:20;;;;;;;38.53;24.50;;;;;;;-145.18;100.00;46689.69;5050318;28;20266;-79
2022/11/30 10:02:48;;;;;;;40.23;24.60;;;;;;;-145.18;100.00;46689.69;5050829;28;20274;-78
2022/11/30 10:05:20;;;;;;;42.27;24.90;;;;;;;-145.18;100.00;46691.66;5050279;28;20365;-78
2022/11/30 10:07:58;;;;;;;44.47;25.13;;;;;;;-145.18;100.00;46687.75;5050561;28;20404;-78
2022/11/30 10:10:46;;;;;;;39.73;24.93;;;;;;;-145.18;100.00;46687.75;5050135;28;20296;-78
2022/11/30 10:13:22;;;;;;;42.00;24.20;;;;;;;-145.18;100.00;46687.75;5052089;28;20266;-78
2022/11/30 10:16:05;;;;;;;38.30;24.02;;;;;;;-145.18;100.00;46689.69;5049479;28;20265;-78
2022/11/30 10:18:44;;;;;;;35.10;22.27;;;;;;;-145.18;100.00;46689.69;5050039;28;20056;-78
2022/11/30 10:21:51;;;;;;;40.27;22.50;;;;;;;-145.18;100.00;46689.69;5053712;28;20964;-78
2022/11/30 10:24:28;;;;;;;36.10;22.50;;;;;;;-145.18;100.00;46691.66;5052891;28;20327;-78
2022/11/30 10:26:56;;;;;;;38.37;22.20;;;;;;;-145.18;100.00;46693.59;5053424;28;20281;-78
2022/11/30 10:29:35;;;;;;;39.37;21.57;;;;;;;-145.18;100.00;46687.75;5052886;28;20274;-78
2022/11/30 10:32:20;;;;;;;36.37;20.97;;;;;;;-145.18;100.00;46687.75;5053537;28;20365;-78
2022/11/30 10:34:50;;;;;;;34.80;20.97;;;;;;;-145.18;100.00;46691.66;5053217;28;20800;-78
2022/11/30 10:37:20;;;;;;;35.03;22.20;;;;;;;-145.18;100.00;46685.78;5053122;28;20273;-79
2022/11/30 10:39:54;;;;;;;34.83;21.53;;;;;;;-145.18;100.00;46691.66;5053239;28;20349;-78
2022/11/30 10:42:27;;;;;;;34.87;21.10;;;;;;;-145.18;100.00;46687.75;5034795;28;20644;-78
2022/11/30 10:45:02;;;;;;;38.63;22.13;;;;;;;-145.18;100.00;46691.66;5053020;28;20262;-78
2022/11/30 10:47:35;;;;;;;34.47;22.50;;;;;;;-145.18;100.00;46695.56;5049310;28;20327;-79
2022/11/30 10:50:03;;;;;;;36.00;22.67;;;;;;;-145.18;100.00;46695.56;5052499;28;20036;-78
2022/11/30 10:52:42;;;;;;;40.67;23.20;;;;;;;-145.18;100.00;46693.59;5051642;28;20357;-78
2022/11/30 10:55:21;;;;;;;38.83;21.97;;;;;;;-145.18;100.00;46689.69;5052544;28;20304;-78
2022/11/30 10:57:53;;;;;;;38.87;20.87;;;;;;;-145.18;100.00;46691.66;5053018;28;20262;-79
2022/11/30 11:00:19;;;;;;;43.93;22.17;;;;;;;-145.18;100.00;46699.47;5052300;28;20312;-78
2022/11/30 11:02:47;;;;;;;36.97;21.50;;;;;;;-145.18;100.00;46699.47;5053357;28;20774;-79
2022/11/30 11:05:21;;;;;;;36.23;21.00;;;;;;;-145.18;100.00;46695.56;5052797;28;20033;-78
2022/11/30 11:07:51;;;;;;;38.83;21.53;;;;;;;-145.18;100.00;46699.47;5052827;28;20266;-79
2022/11/30 11:10:19;;;;;;;36.23;21.03;;;;;;;-145.18;100.00;46701.41;5052436;28;20278;-79